Airfield :
LOGIN :

Register | Disclaimer

   EN    FR    IT 

 










Legend :    VFR   Marginal VFR   IFR   Intensive IFR   Very Intensive IFR
Visi :
Ceiling :
>= 8 km
>= 3000ft
5 to 8 km
1000 to 3000 ft
1500m to 5 km
500 to 1000 ft
800 to 1500m
200 to 500 ft
< 800m
< 200 ft
Symbols :   Thunderstorms  Fog  Heavy snow  Heavy precipitations  Wind > 20 kt
SIGMETs :     Misc.  Thunderstorms  Icing  Turbulence  Mountain Waves  Volcanic Ashes






- Airport Elevation : 39 ft
- IATA code : TRS


LIPQ - Friuli Venezia Giulia Apt. Trieste

CURRENT METAR :
  • 200420Z AUTO 03003KT 360V080 9999 NCD M00/M02 Q1024

EXPIRED METARs :
  • 200350Z AUTO 02004KT 9999 NCD 01/M01 Q1024
  • 200320Z AUTO 36004KT 9999 NCD 01/M01 Q1024
  • 200250Z AUTO 28003KT 9999 NCD 00/M00 Q1023
  • 200220Z AUTO 33004KT 300V020 9999 NCD M00/M01 Q1023

TAF TAF LIPQ
Valid from the 20 at 00:00 until the 21 at 00:00 UTC


192300Z 2000/2024 VRB05KT CAVOK



MET'MAP, your aeronautical weather chart ! - Copyright ORBIFLY December 2007 - Disclaimer

ORBIFLY MET'MAP TEAM :

Programming & Development : Alexandra Zaïnal
Concept & original design : Baudouin d'Aumeries
Assistance for programming : Marc-Olivier Méhu
Technical & hardware support : Manuel Goepfert

Contact : metmap@orbifly.com




SOURCES & CREDITS :

   NOAA